Time;durP1;ratioP1;P1;durP2;ratioP2;P2;SDS_P1;SDS_P2;PMS_P1;PMS_P2;Temp;Humidity;BMP_temperature;BMP_pressure;BME280_temperature;BME280_humidity;BME280_pressure;Samples;Min_cycle;Max_cycle;Signal;HPM_P1;HPM_P2
2023/05/10 00:01:44;;;;;;;3.30;1.27;;;18.40;99.90;;;;;;4935181;29;20630;-90
2023/05/10 00:04:15;;;;;;;3.37;1.20;;;18.80;99.90;;;;;;4935913;28;20215;-89
2023/05/10 00:06:46;;;;;;;4.20;1.50;;;19.10;99.90;;;;;;4922784;29;20216;-89
2023/05/10 00:09:18;;;;;;;1.93;1.10;;;19.30;99.90;;;;;;4917523;29;20233;-91
2023/05/10 00:11:49;;;;;;;2.27;0.90;;;19.40;99.90;;;;;;4925776;29;20223;-91
2023/05/10 00:14:21;;;;;;;1.87;1.20;;;19.50;99.90;;;;;;4937754;29;20204;-91
2023/05/10 00:16:56;;;;;;;4.00;1.20;;;19.60;99.90;;;;;;4937658;29;20264;-90
2023/05/10 00:19:27;;;;;;;3.33;1.23;;;19.80;99.90;;;;;;4937130;29;20200;-91
2023/05/10 00:21:58;;;;;;;2.57;1.40;;;20.10;99.90;;;;;;4924578;29;20256;-91
2023/05/10 00:24:30;;;;;;;3.97;1.40;;;20.30;99.90;;;;;;4934638;29;20284;-92
2023/05/10 00:27:03;;;;;;;3.30;1.13;;;20.20;99.90;;;;;;4941795;29;20214;-89
2023/05/10 00:29:34;;;;;;;1.90;1.20;;;20.30;99.90;;;;;;4943535;29;20248;-92
2023/05/10 00:32:08;;;;;;;3.73;1.30;;;20.40;99.90;;;;;;4940827;29;20688;-90
2023/05/10 00:34:40;;;;;;;2.57;1.10;;;20.40;99.90;;;;;;4927349;29;20219;-91
2023/05/10 00:37:15;;;;;;;3.03;1.27;;;20.20;99.90;;;;;;4922829;29;20204;-92
2023/05/10 00:39:47;;;;;;;2.33;1.00;;;20.10;99.90;;;;;;4929641;29;20212;-92
2023/05/10 00:42:17;;;;;;;1.10;0.90;;;20.30;99.90;;;;;;4921178;29;20584;-92
2023/05/10 00:44:49;;;;;;;1.47;1.00;;;20.00;99.90;;;;;;4929321;29;20212;-92
2023/05/10 00:47:25;;;;;;;2.00;1.07;;;20.00;99.90;;;;;;4937457;29;20243;-94
2023/05/10 00:49:57;;;;;;;0.83;0.70;;;20.10;99.90;;;;;;4946230;28;20244;-91
2023/05/10 00:52:28;;;;;;;1.60;0.90;;;20.10;99.90;;;;;;4956495;29;20208;-93
2023/05/10 00:55:00;;;;;;;2.73;1.00;;;19.60;99.90;;;;;;4946141;29;20205;-94
2023/05/10 00:57:32;;;;;;;2.87;1.00;;;19.80;99.90;;;;;;4939393;29;20188;-92
2023/05/10 01:00:05;;;;;;;2.57;0.80;;;19.80;99.90;;;;;;4935356;29;20271;-92
2023/05/10 01:02:38;;;;;;;0.97;0.90;;;19.60;99.90;;;;;;4937005;28;20222;-91
2023/05/10 01:05:09;;;;;;;1.57;0.90;;;19.80;99.90;;;;;;4936186;29;20295;-91
2023/05/10 01:07:41;;;;;;;3.57;0.90;;;20.40;99.90;;;;;;4935699;28;20215;-92
2023/05/10 01:10:14;;;;;;;2.60;1.00;;;20.90;99.90;;;;;;4937575;29;20231;-91
2023/05/10 01:12:49;;;;;;;1.27;0.80;;;21.50;99.90;;;;;;4918227;29;20544;-91
2023/05/10 01:15:22;;;;;;;3.30;0.87;;;22.10;99.90;;;;;;4919853;28;20220;-92
2023/05/10 01:17:56;;;;;;;2.87;0.90;;;21.90;99.90;;;;;;4917034;29;20646;-92
2023/05/10 01:20:30;;;;;;;1.93;0.97;;;21.80;99.90;;;;;;4931709;29;20295;-91
2023/05/10 01:23:24;;;;;;;0.90;0.80;;;21.30;99.90;;;;;;4918964;29;20622;-92
2023/05/10 01:26:33;;;;;;;2.87;0.70;;;20.70;99.90;;;;;;4918335;29;20276;-93
2023/05/10 01:29:30;;;;;;;1.30;0.80;;;21.20;99.90;;;;;;4931151;29;20212;-93
2023/05/10 01:32:24;;;;;;;2.73;0.90;;;20.80;99.90;;;;;;4940352;29;20220;-92
2023/05/10 01:35:01;;;;;;;1.60;0.90;;;20.90;99.90;;;;;;4939971;29;20208;-91
2023/05/10 01:37:43;;;;;;;1.77;0.80;;;21.50;99.90;;;;;;4940182;29;20212;-93
2023/05/10 01:40:30;;;;;;;1.40;0.90;;;21.00;99.90;;;;;;4927573;29;20212;-92
2023/05/10 01:43:05;;;;;;;0.90;0.70;;;20.40;99.90;;;;;;4940988;29;20215;-93
2023/05/10 01:45:44;;;;;;;2.23;0.80;;;20.00;99.90;;;;;;4940920;29;20211;-92
2023/05/10 01:48:19;;;;;;;2.37;0.80;;;19.50;99.90;;;;;;4937047;29;20201;-92
2023/05/10 01:50:53;;;;;;;4.33;0.77;;;19.40;99.90;;;;;;4939965;29;20240;-91
2023/05/10 01:53:26;;;;;;;1.10;0.60;;;19.30;99.90;;;;;;4939455;29;20267;-91
2023/05/10 01:55:59;;;;;;;1.53;0.73;;;18.70;99.90;;;;;;4937635;29;20618;-92
2023/05/10 01:58:32;;;;;;;2.93;1.10;;;18.60;99.90;;;;;;4920952;29;20221;-92
2023/05/10 02:01:07;;;;;;;1.20;0.60;;;18.50;99.90;;;;;;4923240;29;20631;-92
2023/05/10 02:03:42;;;;;;;1.10;0.70;;;18.50;99.90;;;;;;4933026;29;20753;-92
2023/05/10 02:06:16;;;;;;;1.73;0.70;;;18.30;99.90;;;;;;4941110;29;20215;-91
2023/05/10 02:08:49;;;;;;;2.47;0.80;;;18.00;99.90;;;;;;4940414;29;20207;-92
2023/05/10 02:11:22;;;;;;;2.10;1.00;;;17.90;99.90;;;;;;4940574;29;20232;-92
2023/05/10 02:13:55;;;;;;;2.30;0.70;;;17.80;99.90;;;;;;4929802;29;20276;-90
2023/05/10 02:16:30;;;;;;;1.10;0.70;;;17.70;99.90;;;;;;4921882;29;20233;-92
2023/05/10 02:19:05;;;;;;;0.93;0.77;;;17.60;99.90;;;;;;4929765;29;20230;-92
2023/05/10 02:21:37;;;;;;;2.00;0.90;;;17.50;99.90;;;;;;4940006;29;20212;-93
2023/05/10 02:24:11;;;;;;;1.33;0.87;;;17.40;99.90;;;;;;4939701;29;20212;-91
2023/05/10 02:26:44;;;;;;;5.53;0.90;;;17.40;99.90;;;;;;4940883;29;20634;-92
2023/05/10 02:29:16;;;;;;;1.83;0.80;;;17.40;99.90;;;;;;4939861;29;20208;-93
2023/05/10 02:31:48;;;;;;;0.70;0.70;;;17.50;99.90;;;;;;4922475;29;20249;-92
2023/05/10 02:34:23;;;;;;;1.17;0.70;;;17.40;99.90;;;;;;4930407;29;20212;-92
2023/05/10 02:36:56;;;;;;;2.23;0.80;;;17.30;99.90;;;;;;4940429;29;20209;-92
2023/05/10 02:39:29;;;;;;;2.90;0.70;;;17.30;99.90;;;;;;4940127;29;20228;-91
2023/05/10 02:42:01;;;;;;;1.33;0.90;;;17.30;99.90;;;;;;4938727;29;20248;-90
2023/05/10 02:44:33;;;;;;;2.20;0.80;;;17.20;99.90;;;;;;4940494;29;20231;-92
2023/05/10 02:47:04;;;;;;;1.23;0.70;;;17.20;99.90;;;;;;4940827;28;20224;-92
2023/05/10 02:49:37;;;;;;;2.80;1.20;;;17.00;99.90;;;;;;4941304;29;20220;-92
2023/05/10 02:52:10;;;;;;;4.80;1.30;;;16.90;99.90;;;;;;4922223;29;20241;-93
2023/05/10 02:54:47;;;;;;;1.53;0.70;;;16.70;99.90;;;;;;4922202;29;20213;-91
2023/05/10 02:57:20;;;;;;;2.10;1.00;;;16.60;99.90;;;;;;4936317;29;20221;-94
2023/05/10 02:59:52;;;;;;;1.73;0.70;;;16.50;99.90;;;;;;4951755;29;20197;-92
2023/05/10 03:02:23;;;;;;;0.67;0.50;;;16.40;99.90;;;;;;4956019;29;20267;-91
2023/05/10 03:04:57;;;;;;;3.90;0.60;;;16.20;99.90;;;;;;4938010;29;20307;-93
2023/05/10 03:07:29;;;;;;;1.60;0.60;;;16.20;99.90;;;;;;4939021;29;20244;-90
2023/05/10 03:10:00;;;;;;;1.20;0.80;;;16.00;99.90;;;;;;4939212;29;20255;-92
2023/05/10 03:12:43;;;;;;;2.90;0.90;;;15.90;99.90;;;;;;4939389;29;20236;-92
2023/05/10 03:15:20;;;;;;;0.80;0.60;;;15.80;99.90;;;;;;4939677;28;20224;-92
2023/05/10 03:17:58;;;;;;;1.90;0.80;;;15.70;99.90;;;;;;4939500;28;20223;-90
2023/05/10 03:20:35;;;;;;;2.30;0.80;;;15.60;99.90;;;;;;4938986;29;20204;-93
2023/05/10 03:23:26;;;;;;;2.97;0.83;;;15.50;99.90;;;;;;4939452;29;20210;-93
2023/05/10 03:25:58;;;;;;;2.73;1.00;;;15.40;99.90;;;;;;4939213;29;20249;-93
2023/05/10 03:28:31;;;;;;;2.37;0.90;;;15.40;99.90;;;;;;4938824;29;20212;-93
2023/05/10 03:31:05;;;;;;;3.83;0.90;;;15.30;99.90;;;;;;4940448;29;20240;-92
2023/05/10 03:33:37;;;;;;;1.20;0.80;;;15.30;99.90;;;;;;4939250;29;20216;-93
2023/05/10 03:36:12;;;;;;;0.70;0.70;;;15.10;99.90;;;;;;4923688;29;20346;-93
2023/05/10 03:38:43;;;;;;;1.20;0.80;;;15.00;99.90;;;;;;4921963;29;20277;-92
2023/05/10 03:41:14;;;;;;;1.13;0.90;;;14.90;99.90;;;;;;4928461;29;20305;-93
2023/05/10 03:43:47;;;;;;;1.80;0.90;;;14.80;99.90;;;;;;4933710;29;20212;-94
2023/05/10 03:46:18;;;;;;;1.67;0.90;;;14.70;99.90;;;;;;4922684;29;20269;-93
2023/05/10 03:48:50;;;;;;;2.23;1.03;;;14.70;99.90;;;;;;4924564;29;20212;-94
2023/05/10 03:51:27;;;;;;;1.33;0.87;;;14.70;99.90;;;;;;4926201;29;20237;-93
2023/05/10 03:53:58;;;;;;;1.40;0.97;;;14.60;99.90;;;;;;4930260;29;20732;-93
2023/05/10 03:56:30;;;;;;;1.77;0.87;;;14.50;99.90;;;;;;4934907;28;20215;-94
2023/05/10 03:59:07;;;;;;;2.23;1.00;;;14.40;99.90;;;;;;4925333;29;20268;-91
2023/05/10 04:01:39;;;;;;;2.90;1.07;;;14.30;99.90;;;;;;4923209;29;20272;-92
2023/05/10 04:04:10;;;;;;;1.03;0.93;;;14.30;99.90;;;;;;4926239;29;20212;-92
2023/05/10 04:06:43;;;;;;;1.43;0.90;;;14.20;99.90;;;;;;4938298;29;20231;-92
2023/05/10 04:09:15;;;;;;;2.87;1.80;;;14.20;99.90;;;;;;4931633;29;20579;-92
2023/05/10 04:11:47;;;;;;;3.07;1.83;;;14.10;99.90;;;;;;4933877;29;20244;-92
2023/05/10 04:14:19;;;;;;;4.73;2.07;;;14.00;99.90;;;;;;4935460;29;20215;-91
2023/05/10 04:16:50;;;;;;;1.73;1.20;;;14.00;99.90;;;;;;4923602;29;20201;-93
2023/05/10 04:19:23;;;;;;;2.17;1.17;;;13.90;99.90;;;;;;4936732;28;20215;-93
2023/05/10 04:21:57;;;;;;;3.00;1.23;;;13.90;99.90;;;;;;4931023;28;20216;-92
2023/05/10 04:24:29;;;;;;;1.60;1.07;;;13.90;99.90;;;;;;4926734;29;20205;-91
2023/05/10 04:27:02;;;;;;;1.00;0.90;;;13.80;99.90;;;;;;4935630;29;20208;-91
2023/05/10 04:29:33;;;;;;;1.80;1.00;;;13.70;99.90;;;;;;4936195;29;20220;-91
2023/05/10 04:32:05;;;;;;;2.20;1.07;;;13.60;99.90;;;;;;4937148;29;20235;-94
2023/05/10 04:34:37;;;;;;;3.40;1.10;;;13.50;99.90;;;;;;4934898;29;20215;-92
2023/05/10 04:37:10;;;;;;;2.77;1.13;;;13.40;99.90;;;;;;4932662;29;20314;-93
2023/05/10 04:39:42;;;;;;;2.27;0.80;;;13.30;99.90;;;;;;4920166;29;20217;-92
2023/05/10 04:42:14;;;;;;;1.67;1.13;;;13.30;99.90;;;;;;4934137;29;20205;-92
2023/05/10 04:44:46;;;;;;;2.57;1.03;;;13.20;99.90;;;;;;4933809;29;20286;-93
2023/05/10 04:47:21;;;;;;;0.80;0.80;;;13.10;99.90;;;;;;4936304;29;20220;-93
2023/05/10 04:49:55;;;;;;;1.57;1.00;;;13.00;99.90;;;;;;4932455;29;20208;-93
2023/05/10 04:52:30;;;;;;;2.73;1.30;;;12.90;99.90;;;;;;4936573;29;20235;-93
2023/05/10 04:55:02;;;;;;;3.23;1.20;;;12.90;99.90;;;;;;4939015;29;20613;-91
2023/05/10 04:57:34;;;;;;;2.27;1.00;;;12.90;99.90;;;;;;4939753;29;20224;-93
2023/05/10 05:00:06;;;;;;;2.40;1.10;;;12.90;99.90;;;;;;4936563;29;20326;-93
2023/05/10 05:02:37;;;;;;;3.17;1.30;;;12.80;99.90;;;;;;4938131;29;20530;-92
2023/05/10 05:05:10;;;;;;;2.53;1.07;;;12.70;99.90;;;;;;4951156;29;20209;-92
2023/05/10 05:07:43;;;;;;;3.50;0.93;;;12.70;99.90;;;;;;4957080;29;20292;-92
2023/05/10 05:10:15;;;;;;;1.17;0.70;;;12.60;99.90;;;;;;4953564;28;20224;-92
2023/05/10 05:12:47;;;;;;;4.17;1.10;;;12.60;99.90;;;;;;4948963;28;20296;-92
2023/05/10 05:15:19;;;;;;;1.67;0.83;;;12.60;99.90;;;;;;4937974;29;20271;-91
2023/05/10 05:17:50;;;;;;;1.93;0.90;;;12.50;99.90;;;;;;4924667;29;20276;-92
2023/05/10 05:20:22;;;;;;;4.67;1.33;;;12.40;99.90;;;;;;4928031;29;20254;-93
2023/05/10 05:22:55;;;;;;;1.90;1.03;;;12.30;99.90;;;;;;4937193;29;20220;-92
2023/05/10 05:25:27;;;;;;;2.43;0.97;;;12.30;99.90;;;;;;4932197;28;20240;-91
2023/05/10 05:27:58;;;;;;;3.30;1.10;;;12.30;99.90;;;;;;4935754;29;20276;-94
2023/05/10 05:30:30;;;;;;;2.73;1.03;;;12.30;99.90;;;;;;4929594;28;20269;-91
2023/05/10 05:33:01;;;;;;;1.30;0.97;;;12.20;99.90;;;;;;4918553;29;20288;-93
2023/05/10 05:35:32;;;;;;;1.47;0.77;;;12.10;99.90;;;;;;4918628;29;20261;-92
2023/05/10 05:38:06;;;;;;;2.13;0.87;;;12.10;99.90;;;;;;4916466;29;20220;-93
2023/05/10 05:40:38;;;;;;;1.63;0.80;;;12.10;99.90;;;;;;4922156;29;20221;-93
2023/05/10 05:43:09;;;;;;;2.87;1.00;;;12.00;99.90;;;;;;4924212;29;20209;-92
2023/05/10 05:45:41;;;;;;;3.57;1.20;;;11.90;99.90;;;;;;4936677;29;20213;-92
2023/05/10 05:48:13;;;;;;;5.67;1.30;;;11.90;99.90;;;;;;4930776;29;20209;-92
2023/05/10 05:50:45;;;;;;;1.53;1.17;;;11.90;99.90;;;;;;4935161;28;20275;-93
2023/05/10 05:53:18;;;;;;;3.07;1.30;;;11.80;99.90;;;;;;4927260;28;20799;-93
2023/05/10 05:55:57;;;;;;;2.77;1.10;;;11.70;99.90;;;;;;4932034;29;20216;-92
2023/05/10 05:58:28;;;;;;;3.53;1.30;;;11.70;99.90;;;;;;4936221;29;20300;-92
2023/05/10 06:01:00;;;;;;;3.73;1.37;;;11.60;99.90;;;;;;4935067;29;20579;-91
2023/05/10 06:03:32;;;;;;;3.47;1.23;;;11.60;99.90;;;;;;4933891;29;20697;-92
2023/05/10 06:06:05;;;;;;;2.90;1.10;;;11.50;99.90;;;;;;4929941;29;20244;-94
2023/05/10 06:08:39;;;;;;;2.20;1.03;;;11.50;99.90;;;;;;4922681;29;20226;-91
2023/05/10 06:11:11;;;;;;;4.80;1.27;;;11.40;99.90;;;;;;4937475;29;20614;-92
2023/05/10 06:13:43;;;;;;;2.27;1.20;;;11.40;99.90;;;;;;4937054;29;20598;-92
2023/05/10 06:16:15;;;;;;;3.87;1.30;;;11.40;99.90;;;;;;4931742;29;20204;-92
2023/05/10 06:18:46;;;;;;;3.07;1.10;;;11.40;99.90;;;;;;4940333;28;20568;-92
2023/05/10 06:21:17;;;;;;;4.47;2.07;;;11.40;99.90;;;;;;4939675;29;20213;-93
2023/05/10 06:23:52;;;;;;;7.97;1.50;;;11.30;99.90;;;;;;4938026;29;20612;-92
2023/05/10 06:26:24;;;;;;;5.83;1.40;;;11.20;99.90;;;;;;4939827;29;20219;-92
2023/05/10 06:28:56;;;;;;;3.73;1.10;;;11.10;99.90;;;;;;4939344;29;20239;-92
2023/05/10 06:31:28;;;;;;;3.27;1.33;;;11.20;99.90;;;;;;4939938;29;20307;-91
2023/05/10 06:33:59;;;;;;;4.03;1.77;;;11.10;99.90;;;;;;4926413;29;20261;-91
2023/05/10 06:36:31;;;;;;;4.90;1.90;;;11.00;99.90;;;;;;4930569;29;20256;-92
2023/05/10 06:39:06;;;;;;;4.87;1.60;;;10.90;99.90;;;;;;4937531;29;20729;-91
2023/05/10 06:41:37;;;;;;;4.67;1.53;;;10.90;99.90;;;;;;4937047;29;20215;-91
2023/05/10 06:44:09;;;;;;;4.43;1.60;;;10.80;99.90;;;;;;4932382;29;20209;-92
2023/05/10 06:46:41;;;;;;;6.87;1.73;;;10.80;99.90;;;;;;4924772;29;20220;-91
2023/05/10 06:49:13;;;;;;;5.20;1.73;;;10.80;99.90;;;;;;4938781;29;20223;-92
2023/05/10 06:51:45;;;;;;;4.23;1.17;;;10.80;99.90;;;;;;4940150;29;20212;-93
2023/05/10 06:54:19;;;;;;;2.77;1.30;;;10.80;99.90;;;;;;4940131;29;20713;-93
2023/05/10 06:56:50;;;;;;;4.43;1.50;;;10.70;99.90;;;;;;4939975;29;20212;-91
2023/05/10 06:59:22;;;;;;;4.63;1.50;;;10.70;99.90;;;;;;4939336;28;20276;-91
2023/05/10 07:01:54;;;;;;;4.87;1.57;;;10.70;99.90;;;;;;4938219;29;20697;-92
2023/05/10 07:04:25;;;;;;;4.80;1.30;;;10.70;99.90;;;;;;4940395;29;20232;-92
2023/05/10 07:07:00;;;;;;;4.97;2.10;;;10.70;99.90;;;;;;4939446;29;20216;-92
2023/05/10 07:09:34;;;;;;;4.27;1.73;;;10.60;99.90;;;;;;4939668;29;20275;-94
2023/05/10 07:12:08;;;;;;;4.53;1.40;;;10.60;99.90;;;;;;4957829;29;20213;-93
2023/05/10 07:14:44;;;;;;;6.30;1.83;;;10.60;99.90;;;;;;4961234;29;20196;-93
2023/05/10 07:17:15;;;;;;;4.83;1.57;;;10.60;99.90;;;;;;4954223;29;20212;-93
2023/05/10 07:19:48;;;;;;;5.83;1.70;;;10.50;99.90;;;;;;4929641;29;20233;-91
2023/05/10 07:22:19;;;;;;;7.57;1.60;;;10.50;99.90;;;;;;4939139;28;20240;-93
2023/05/10 07:24:54;;;;;;;7.40;1.53;;;10.40;99.90;;;;;;4938496;29;20198;-92
2023/05/10 07:27:26;;;;;;;5.17;1.77;;;10.40;99.90;;;;;;4936469;29;20207;-92
2023/05/10 07:29:57;;;;;;;7.00;1.77;;;10.40;99.90;;;;;;4937591;29;20208;-91
2023/05/10 07:32:29;;;;;;;4.93;1.40;;;10.40;99.90;;;;;;4938952;29;20208;-92
2023/05/10 07:35:00;;;;;;;3.43;1.70;;;10.30;99.90;;;;;;4932827;29;20672;-92
2023/05/10 07:37:32;;;;;;;2.70;1.20;;;10.20;99.90;;;;;;4920032;29;20634;-93
2023/05/10 07:40:07;;;;;;;6.20;2.07;;;10.20;99.90;;;;;;4926179;29;20295;-93
2023/05/10 07:42:38;;;;;;;4.87;1.83;;;10.20;99.90;;;;;;4928721;28;20632;-93
2023/05/10 07:45:11;;;;;;;4.83;2.03;;;10.20;99.90;;;;;;4920400;29;20205;-92
2023/05/10 07:47:42;;;;;;;3.70;1.67;;;10.20;99.90;;;;;;4938396;29;20224;-92
2023/05/10 07:50:14;;;;;;;4.30;1.57;;;10.20;99.90;;;;;;4934504;29;20280;-92
2023/05/10 07:52:45;;;;;;;4.60;1.87;;;10.10;99.90;;;;;;4928654;29;20204;-92
2023/05/10 07:55:21;;;;;;;5.07;1.77;;;10.10;99.90;;;;;;4932334;29;20251;-93
2023/05/10 07:57:52;;;;;;;4.57;1.60;;;10.20;99.90;;;;;;4938926;29;20219;-93
2023/05/10 08:00:24;;;;;;;4.33;1.40;;;10.20;99.90;;;;;;4934227;29;20212;-91
2023/05/10 08:02:55;;;;;;;5.27;1.60;;;10.20;99.90;;;;;;4939277;28;20216;-94
2023/05/10 08:05:26;;;;;;;3.27;1.20;;;10.20;99.90;;;;;;4940442;29;20205;-92
2023/05/10 08:07:59;;;;;;;5.37;1.33;;;10.10;99.90;;;;;;4940452;28;20408;-92
2023/05/10 08:10:33;;;;;;;4.67;1.53;;;10.10;99.90;;;;;;4937729;29;20208;-93
2023/05/10 08:13:08;;;;;;;4.97;1.63;;;10.00;99.90;;;;;;4919799;29;20270;-94
2023/05/10 08:15:40;;;;;;;3.67;1.40;;;10.00;99.90;;;;;;4935410;29;20207;-91
2023/05/10 08:18:11;;;;;;;6.63;1.40;;;9.90;99.90;;;;;;4937547;28;20211;-92
2023/05/10 08:20:42;;;;;;;5.33;1.83;;;9.90;99.90;;;;;;4929457;29;20209;-92
2023/05/10 08:23:15;;;;;;;6.37;1.70;;;9.80;99.90;;;;;;4919936;29;20221;-91
2023/05/10 08:25:49;;;;;;;4.57;1.50;;;9.80;99.90;;;;;;4934373;29;20236;-91
2023/05/10 08:28:20;;;;;;;6.40;2.13;;;9.70;99.90;;;;;;4918250;29;20223;-92
2023/05/10 08:30:53;;;;;;;6.53;1.77;;;9.70;99.90;;;;;;4936495;29;20228;-93
2023/05/10 08:33:24;;;;;;;4.07;1.80;;;9.60;99.90;;;;;;4937708;29;20238;-91
2023/05/10 08:35:56;;;;;;;3.60;1.70;;;9.60;99.90;;;;;;4927121;29;20220;-91
2023/05/10 08:38:27;;;;;;;7.60;1.57;;;9.60;99.90;;;;;;4931973;29;20224;-90
2023/05/10 08:41:04;;;;;;;6.63;1.70;;;9.50;99.90;;;;;;4936571;29;20212;-92
2023/05/10 08:43:41;;;;;;;5.80;1.67;;;9.50;99.90;;;;;;4948377;29;20211;-92
2023/05/10 08:46:13;;;;;;;7.47;1.57;;;9.40;99.90;;;;;;4945715;28;20220;-91
2023/05/10 08:48:46;;;;;;;4.33;1.50;;;9.50;99.90;;;;;;4937498;28;20204;-92
2023/05/10 08:51:20;;;;;;;5.60;1.50;;;9.50;99.90;;;;;;4936819;29;20212;-92
2023/05/10 08:53:52;;;;;;;5.07;1.50;;;9.40;99.90;;;;;;4938142;29;20326;-93
2023/05/10 08:56:26;;;;;;;6.07;1.93;;;9.40;99.90;;;;;;4937985;29;20211;-93
2023/05/10 08:58:59;;;;;;;5.83;1.40;;;9.40;99.90;;;;;;4938044;29;20553;-92
2023/05/10 09:01:33;;;;;;;4.07;1.57;;;9.30;99.90;;;;;;4938350;29;20228;-93
2023/05/10 09:04:05;;;;;;;3.60;1.30;;;9.30;99.90;;;;;;4937809;29;20272;-94
2023/05/10 09:06:38;;;;;;;5.73;1.70;;;9.30;99.90;;;;;;4937511;29;20219;-91
2023/05/10 09:09:10;;;;;;;4.03;1.60;;;9.30;99.90;;;;;;4935493;29;20208;-92
2023/05/10 09:11:45;;;;;;;6.67;2.07;;;9.20;99.90;;;;;;4938387;29;20208;-93
2023/05/10 09:14:17;;;;;;;3.97;1.50;;;9.20;99.90;;;;;;4938033;29;20283;-93
2023/05/10 09:16:50;;;;;;;7.03;1.40;;;9.20;99.90;;;;;;4949856;29;20192;-94
2023/05/10 09:19:21;;;;;;;6.87;2.00;;;9.20;99.90;;;;;;4958194;29;20208;-92
2023/05/10 09:21:53;;;;;;;6.67;2.13;;;9.10;99.90;;;;;;4954435;29;20208;-93
2023/05/10 09:24:28;;;;;;;4.27;1.97;;;9.10;99.90;;;;;;4940704;28;20216;-93
2023/05/10 09:27:03;;;;;;;5.17;1.80;;;9.20;99.90;;;;;;4940464;29;20219;-92
2023/05/10 09:29:42;;;;;;;4.57;1.70;;;9.10;99.90;;;;;;4938030;28;20211;-93
2023/05/10 09:32:14;;;;;;;4.57;1.60;;;9.10;99.90;;;;;;4926665;29;20271;-91
2023/05/10 09:34:45;;;;;;;5.67;1.73;;;9.10;99.90;;;;;;4937936;29;20258;-91
2023/05/10 09:37:17;;;;;;;4.87;1.50;;;9.10;99.90;;;;;;4935550;28;20259;-91
2023/05/10 09:39:48;;;;;;;4.90;1.50;;;9.10;99.90;;;;;;4937523;28;20256;-92
2023/05/10 09:42:23;;;;;;;6.40;2.07;;;9.10;99.90;;;;;;4926483;28;20312;-93
2023/05/10 09:44:58;;;;;;;4.93;1.90;;;9.10;99.90;;;;;;4918952;29;20299;-93
2023/05/10 09:47:30;;;;;;;7.50;2.23;;;9.00;99.90;;;;;;4919055;29;20644;-91
2023/05/10 09:50:04;;;;;;;7.73;1.60;;;9.00;99.90;;;;;;4921356;29;20339;-92
2023/05/10 09:52:50;;;;;;;3.90;1.20;;;8.90;99.90;;;;;;4935089;29;20271;-92
2023/05/10 09:55:23;;;;;;;3.73;1.50;;;8.80;99.90;;;;;;4936775;29;20243;-92
2023/05/10 09:58:02;;;;;;;4.40;1.80;;;8.80;99.90;;;;;;4942336;29;20265;-93
2023/05/10 10:00:38;;;;;;;6.57;1.40;;;8.80;99.90;;;;;;4925110;29;20217;-92
2023/05/10 10:03:14;;;;;;;5.53;1.90;;;8.90;99.90;;;;;;4923790;29;20209;-92
2023/05/10 10:05:47;;;;;;;6.27;2.13;;;8.90;99.90;;;;;;4923214;29;20303;-94
2023/05/10 10:08:19;;;;;;;5.70;1.60;;;8.80;99.90;;;;;;4922620;29;20626;-92
2023/05/10 10:10:51;;;;;;;4.93;2.30;;;8.80;99.90;;;;;;4936247;29;20318;-93
2023/05/10 10:13:25;;;;;;;4.93;1.87;;;8.80;99.90;;;;;;4942194;28;20251;-93
2023/05/10 10:15:57;;;;;;;6.00;1.53;;;8.80;99.90;;;;;;4942281;29;20696;-93
2023/05/10 10:18:29;;;;;;;8.13;1.87;;;8.80;99.90;;;;;;4941658;29;20216;-92
2023/05/10 10:21:02;;;;;;;4.60;1.87;;;8.80;99.90;;;;;;4940740;29;20212;-92
2023/05/10 10:23:34;;;;;;;5.00;2.10;;;8.70;99.90;;;;;;4940531;29;20579;-92
2023/05/10 10:26:06;;;;;;;9.43;1.97;;;8.60;99.90;;;;;;4940634;29;20212;-94
2023/05/10 10:28:51;;;;;;;5.30;2.07;;;8.60;99.90;;;;;;4921390;29;20217;-94
2023/05/10 10:31:34;;;;;;;5.37;2.07;;;8.60;99.90;;;;;;4925521;29;20213;-92
2023/05/10 10:34:10;;;;;;;3.97;1.53;;;8.50;99.90;;;;;;4959362;28;20200;-93
2023/05/10 10:36:47;;;;;;;4.97;1.63;;;8.50;99.90;;;;;;4921742;29;20292;-92
2023/05/10 10:39:20;;;;;;;4.00;1.90;;;8.40;99.90;;;;;;4921758;29;20240;-93
2023/05/10 10:41:55;;;;;;;3.30;1.70;;;8.40;99.90;;;;;;4940749;29;20220;-93
2023/05/10 10:44:44;;;;;;;4.60;1.90;;;8.30;99.90;;;;;;4939891;29;20295;-94
2023/05/10 10:47:29;;;;;;;6.10;1.90;;;8.30;99.90;;;;;;4939877;28;20228;-92
2023/05/10 10:50:09;;;;;;;5.17;1.80;;;8.30;99.90;;;;;;4936455;29;20275;-92
2023/05/10 10:52:41;;;;;;;4.53;1.80;;;8.30;99.90;;;;;;4921049;29;20223;-90
2023/05/10 10:55:14;;;;;;;3.93;1.40;;;8.20;99.90;;;;;;4931453;29;20279;-90
2023/05/10 10:57:48;;;;;;;5.03;1.60;;;8.20;99.90;;;;;;4924960;28;20213;-91
2023/05/10 11:00:30;;;;;;;3.30;1.43;;;8.20;99.90;;;;;;4935419;29;20216;-92
2023/05/10 11:03:06;;;;;;;10.07;2.30;;;8.20;99.90;;;;;;4933684;29;20211;-92
2023/05/10 11:05:40;;;;;;;4.40;1.90;;;8.20;99.90;;;;;;4941344;28;20294;-91
2023/05/10 11:08:27;;;;;;;6.57;1.80;;;8.20;99.90;;;;;;4939999;28;20219;-93
2023/05/10 11:11:20;;;;;;;5.63;1.77;;;8.10;99.90;;;;;;4940905;29;20212;-92
2023/05/10 11:13:51;;;;;;;2.90;1.60;;;8.10;99.90;;;;;;4939655;29;20260;-93
2023/05/10 11:16:26;;;;;;;4.83;1.70;;;8.10;99.90;;;;;;4940932;29;20271;-95
2023/05/10 11:19:03;;;;;;;5.13;1.90;;;8.10;99.90;;;;;;4940541;28;20329;-94
2023/05/10 11:21:37;;;;;;;3.33;1.60;;;8.00;99.90;;;;;;4939173;29;20280;-92
2023/05/10 11:24:17;;;;;;;6.30;1.93;;;8.00;99.90;;;;;;4942068;29;20204;-94
2023/05/10 11:26:51;;;;;;;6.73;1.73;;;8.00;99.90;;;;;;4943105;29;20213;-91
2023/05/10 11:29:23;;;;;;;4.57;2.00;;;8.10;99.90;;;;;;4944079;29;20216;-93
2023/05/10 11:31:59;;;;;;;6.13;2.30;;;8.00;99.90;;;;;;4941334;29;20676;-92
2023/05/10 11:34:33;;;;;;;6.37;2.03;;;7.90;99.90;;;;;;4938848;29;20200;-93
2023/05/10 11:37:04;;;;;;;9.90;2.00;;;7.90;99.90;;;;;;4943706;29;20216;-92
2023/05/10 11:39:36;;;;;;;8.20;2.00;;;7.80;99.90;;;;;;4950910;28;20212;-93
2023/05/10 11:42:09;;;;;;;8.20;1.83;;;7.80;99.90;;;;;;4940128;29;20677;-91
2023/05/10 11:44:40;;;;;;;6.37;1.87;;;7.80;99.90;;;;;;4935175;29;20236;-92
2023/05/10 11:47:16;;;;;;;7.73;2.00;;;7.80;99.90;;;;;;4920831;29;20221;-93
2023/05/10 11:49:48;;;;;;;4.30;1.80;;;7.80;99.90;;;;;;4907240;29;20294;-92
2023/05/10 11:52:21;;;;;;;5.80;2.00;;;7.70;99.90;;;;;;4939696;28;20669;-94
2023/05/10 11:54:56;;;;;;;5.07;1.53;;;7.70;99.90;;;;;;4938411;29;20288;-93
2023/05/10 11:57:31;;;;;;;6.63;2.27;;;7.60;99.90;;;;;;4939325;29;20263;-92
2023/05/10 12:00:03;;;;;;;4.77;1.90;;;7.60;99.90;;;;;;4938006;29;20209;-94
2023/05/10 12:02:37;;;;;;;4.33;1.83;;;7.60;99.90;;;;;;4939029;29;20213;-92
2023/05/10 12:05:10;;;;;;;7.17;2.00;;;7.70;99.90;;;;;;4939280;28;20279;-92
2023/05/10 12:07:43;;;;;;;4.20;1.60;;;7.70;99.90;;;;;;4935657;29;20205;-92
2023/05/10 12:10:17;;;;;;;4.03;1.70;;;7.70;99.90;;;;;;4939650;28;20212;-92
2023/05/10 12:12:49;;;;;;;8.90;2.50;;;7.70;99.90;;;;;;4939221;29;20247;-94
2023/05/10 12:15:22;;;;;;;7.63;2.17;;;7.70;99.90;;;;;;4939322;29;20228;-93
2023/05/10 12:17:56;;;;;;;6.03;2.03;;;7.70;99.90;;;;;;4937845;29;20305;-93
2023/05/10 12:20:30;;;;;;;4.70;2.00;;;7.60;99.90;;;;;;4938853;29;20629;-92
2023/05/10 12:23:03;;;;;;;5.63;2.20;;;7.60;99.90;;;;;;4939689;29;20215;-94
2023/05/10 12:25:36;;;;;;;9.40;2.00;;;7.60;99.90;;;;;;4938970;29;20626;-93
2023/05/10 12:28:08;;;;;;;6.30;2.00;;;7.60;99.90;;;;;;4937631;29;20585;-94
2023/05/10 12:30:40;;;;;;;5.97;2.00;;;7.70;99.90;;;;;;4938946;29;20216;-93
2023/05/10 12:33:14;;;;;;;6.57;1.63;;;7.70;99.90;;;;;;4937013;29;20208;-94
2023/05/10 12:35:50;;;;;;;3.60;1.70;;;7.70;99.90;;;;;;4939059;28;20313;-93
2023/05/10 12:38:38;;;;;;;5.97;1.97;;;7.60;99.90;;;;;;4938205;29;20255;-92
2023/05/10 12:41:11;;;;;;;6.33;2.07;;;7.70;99.90;;;;;;4920630;28;20256;-92
2023/05/10 12:43:43;;;;;;;5.43;1.50;;;7.60;99.90;;;;;;4919343;29;20393;-92
2023/05/10 12:46:15;;;;;;;3.37;1.70;;;7.70;99.90;;;;;;4919843;29;20213;-91
2023/05/10 12:48:54;;;;;;;5.77;1.83;;;7.70;99.90;;;;;;4918502;29;20327;-92
2023/05/10 12:51:39;;;;;;;5.90;2.13;;;7.60;99.90;;;;;;4925070;29;20219;-92
2023/05/10 12:54:10;;;;;;;4.80;1.80;;;7.60;99.90;;;;;;4938430;28;20215;-93
2023/05/10 12:56:42;;;;;;;5.10;1.47;;;7.70;99.90;;;;;;4938061;28;20232;-91
2023/05/10 12:59:13;;;;;;;7.03;2.03;;;7.70;99.90;;;;;;4936756;29;20197;-92
2023/05/10 13:01:45;;;;;;;5.10;2.07;;;7.70;99.90;;;;;;4937937;29;20204;-92
2023/05/10 13:04:18;;;;;;;2.53;1.47;;;7.70;99.90;;;;;;4937674;29;20210;-92
2023/05/10 13:06:50;;;;;;;5.50;2.20;;;7.70;99.90;;;;;;4937624;29;20295;-91
2023/05/10 13:09:21;;;;;;;4.77;1.63;;;7.70;99.90;;;;;;4937202;28;20216;-93
2023/05/10 13:11:53;;;;;;;6.03;1.80;;;7.80;99.90;;;;;;4936644;28;20219;-92
2023/05/10 13:14:24;;;;;;;5.37;1.67;;;7.70;99.90;;;;;;4934403;29;20287;-94
2023/05/10 13:16:56;;;;;;;5.63;1.90;;;7.80;99.90;;;;;;4938459;29;20240;-93
2023/05/10 13:19:29;;;;;;;5.43;1.63;;;7.70;99.90;;;;;;4938373;29;20215;-94
2023/05/10 13:22:00;;;;;;;6.27;2.40;;;7.70;99.90;;;;;;4937886;29;20252;-93
2023/05/10 13:24:33;;;;;;;4.27;1.83;;;7.70;99.90;;;;;;4943175;29;20223;-93